sensor_id;sensor_type;location;lat;lon;timestamp;P1;durP1;ratioP1;P2;durP2;ratioP2
52318;SDS011;38258;51.148;14.068;2024-03-02T00:00:52;31.83;;;16.92;;
52318;SDS011;38258;51.148;14.068;2024-03-02T00:03:19;31.17;;;15.80;;
52318;SDS011;38258;51.148;14.068;2024-03-02T00:05:49;31.30;;;16.30;;
52318;SDS011;38258;51.148;14.068;2024-03-02T00:08:22;31.00;;;16.05;;
52318;SDS011;38258;51.148;14.068;2024-03-02T00:10:56;30.83;;;16.13;;
52318;SDS011;38258;51.148;14.068;2024-03-02T00:13:23;33.35;;;16.50;;
52318;SDS011;38258;51.148;14.068;2024-03-02T00:15:51;29.17;;;15.73;;
52318;SDS011;38258;51.148;14.068;2024-03-02T00:18:20;27.60;;;15.35;;
52318;SDS011;38258;51.148;14.068;2024-03-02T00:20:52;31.95;;;15.60;;
52318;SDS011;38258;51.148;14.068;2024-03-02T00:23:21;30.50;;;15.52;;
52318;SDS011;38258;51.148;14.068;2024-03-02T00:25:48;31.00;;;15.98;;
52318;SDS011;38258;51.148;14.068;2024-03-02T00:28:19;28.40;;;15.05;;
52318;SDS011;38258;51.148;14.068;2024-03-02T00:30:57;29.33;;;15.73;;
52318;SDS011;38258;51.148;14.068;2024-03-02T00:33:26;31.30;;;15.23;;
52318;SDS011;38258;51.148;14.068;2024-03-02T00:35:56;30.88;;;15.73;;
52318;SDS011;38258;51.148;14.068;2024-03-02T00:38:25;29.90;;;16.23;;
52318;SDS011;38258;51.148;14.068;2024-03-02T00:40:52;31.92;;;16.95;;
52318;SDS011;38258;51.148;14.068;2024-03-02T00:46:15;30.23;;;15.18;;
52318;SDS011;38258;51.148;14.068;2024-03-02T00:48:47;31.50;;;16.02;;
52318;SDS011;38258;51.148;14.068;2024-03-02T00:51:19;34.92;;;16.80;;
52318;SDS011;38258;51.148;14.068;2024-03-02T00:53:48;31.50;;;16.17;;
52318;SDS011;38258;51.148;14.068;2024-03-02T00:56:16;31.45;;;15.95;;
52318;SDS011;38258;51.148;14.068;2024-03-02T00:58:43;31.58;;;16.50;;
52318;SDS011;38258;51.148;14.068;2024-03-02T01:01:09;35.63;;;16.20;;
52318;SDS011;38258;51.148;14.068;2024-03-02T01:03:36;32.78;;;16.45;;
52318;SDS011;38258;51.148;14.068;2024-03-02T01:06:04;31.13;;;15.90;;
52318;SDS011;38258;51.148;14.068;2024-03-02T01:08:29;31.63;;;15.60;;
52318;SDS011;38258;51.148;14.068;2024-03-02T01:10:58;28.83;;;15.93;;
52318;SDS011;38258;51.148;14.068;2024-03-02T01:13:24;35.22;;;16.60;;
52318;SDS011;38258;51.148;14.068;2024-03-02T01:15:51;33.35;;;16.27;;
52318;SDS011;38258;51.148;14.068;2024-03-02T01:18:18;32.38;;;15.95;;
52318;SDS011;38258;51.148;14.068;2024-03-02T01:20:45;30.73;;;15.05;;
52318;SDS011;38258;51.148;14.068;2024-03-02T01:23:11;31.38;;;16.30;;
52318;SDS011;38258;51.148;14.068;2024-03-02T01:25:38;31.35;;;16.73;;
52318;SDS011;38258;51.148;14.068;2024-03-02T01:28:06;29.83;;;15.50;;
52318;SDS011;38258;51.148;14.068;2024-03-02T01:30:33;34.92;;;16.98;;
52318;SDS011;38258;51.148;14.068;2024-03-02T01:33:00;29.98;;;16.00;;
52318;SDS011;38258;51.148;14.068;2024-03-02T01:35:27;31.30;;;15.52;;
52318;SDS011;38258;51.148;14.068;2024-03-02T01:37:54;27.15;;;14.98;;
52318;SDS011;38258;51.148;14.068;2024-03-02T01:40:20;30.85;;;16.52;;
52318;SDS011;38258;51.148;14.068;2024-03-02T01:42:48;28.95;;;15.73;;
52318;SDS011;38258;51.148;14.068;2024-03-02T01:45:16;33.45;;;17.27;;
52318;SDS011;38258;51.148;14.068;2024-03-02T01:47:43;33.67;;;15.85;;
52318;SDS011;38258;51.148;14.068;2024-03-02T01:50:10;33.08;;;16.90;;
52318;SDS011;38258;51.148;14.068;2024-03-02T01:52:38;30.90;;;16.40;;
52318;SDS011;38258;51.148;14.068;2024-03-02T01:55:06;34.83;;;16.75;;
52318;SDS011;38258;51.148;14.068;2024-03-02T01:57:37;30.85;;;16.17;;
52318;SDS011;38258;51.148;14.068;2024-03-02T02:00:04;31.63;;;16.15;;
52318;SDS011;38258;51.148;14.068;2024-03-02T02:05:06;34.95;;;16.23;;
52318;SDS011;38258;51.148;14.068;2024-03-02T02:07:34;34.28;;;15.27;;
52318;SDS011;38258;51.148;14.068;2024-03-02T02:10:01;28.83;;;15.35;;
52318;SDS011;38258;51.148;14.068;2024-03-02T02:12:28;30.70;;;16.17;;
52318;SDS011;38258;51.148;14.068;2024-03-02T02:14:55;33.10;;;16.20;;
52318;SDS011;38258;51.148;14.068;2024-03-02T02:17:21;35.38;;;15.93;;
52318;SDS011;38258;51.148;14.068;2024-03-02T02:19:49;31.70;;;16.15;;
52318;SDS011;38258;51.148;14.068;2024-03-02T02:22:17;34.92;;;15.35;;
52318;SDS011;38258;51.148;14.068;2024-03-02T02:24:44;32.45;;;15.68;;
52318;SDS011;38258;51.148;14.068;2024-03-02T02:27:11;31.77;;;15.57;;
52318;SDS011;38258;51.148;14.068;2024-03-02T02:29:40;30.60;;;14.93;;
52318;SDS011;38258;51.148;14.068;2024-03-02T02:32:07;32.08;;;15.65;;
52318;SDS011;38258;51.148;14.068;2024-03-02T02:34:33;29.10;;;15.45;;
52318;SDS011;38258;51.148;14.068;2024-03-02T02:37:00;31.08;;;15.43;;
52318;SDS011;38258;51.148;14.068;2024-03-02T02:39:29;31.92;;;15.77;;
52318;SDS011;38258;51.148;14.068;2024-03-02T02:41:55;31.52;;;16.67;;
52318;SDS011;38258;51.148;14.068;2024-03-02T02:44:22;33.10;;;15.65;;
52318;SDS011;38258;51.148;14.068;2024-03-02T02:46:49;32.17;;;16.63;;
52318;SDS011;38258;51.148;14.068;2024-03-02T02:49:15;31.58;;;15.45;;
52318;SDS011;38258;51.148;14.068;2024-03-02T02:51:42;29.70;;;15.23;;
52318;SDS011;38258;51.148;14.068;2024-03-02T02:54:08;29.58;;;15.23;;
52318;SDS011;38258;51.148;14.068;2024-03-02T02:56:36;29.42;;;15.48;;
52318;SDS011;38258;51.148;14.068;2024-03-02T02:59:03;33.42;;;16.30;;
52318;SDS011;38258;51.148;14.068;2024-03-02T03:01:29;31.55;;;15.52;;
52318;SDS011;38258;51.148;14.068;2024-03-02T03:03:56;35.70;;;17.10;;
52318;SDS011;38258;51.148;14.068;2024-03-02T03:06:22;36.00;;;16.67;;
52318;SDS011;38258;51.148;14.068;2024-03-02T03:08:49;35.67;;;16.67;;
52318;SDS011;38258;51.148;14.068;2024-03-02T03:11:16;32.92;;;16.10;;
52318;SDS011;38258;51.148;14.068;2024-03-02T03:13:43;38.92;;;16.85;;
52318;SDS011;38258;51.148;14.068;2024-03-02T03:16:10;38.08;;;16.70;;
52318;SDS011;38258;51.148;14.068;2024-03-02T03:18:36;35.60;;;16.90;;
52318;SDS011;38258;51.148;14.068;2024-03-02T03:21:03;39.65;;;17.02;;
52318;SDS011;38258;51.148;14.068;2024-03-02T03:23:30;39.55;;;17.48;;
52318;SDS011;38258;51.148;14.068;2024-03-02T03:25:56;38.90;;;16.15;;
52318;SDS011;38258;51.148;14.068;2024-03-02T03:28:23;41.60;;;16.63;;
52318;SDS011;38258;51.148;14.068;2024-03-02T03:30:51;46.20;;;18.90;;
52318;SDS011;38258;51.148;14.068;2024-03-02T03:33:17;42.53;;;18.77;;
52318;SDS011;38258;51.148;14.068;2024-03-02T03:35:44;43.42;;;17.85;;
52318;SDS011;38258;51.148;14.068;2024-03-02T03:38:11;41.03;;;18.27;;
52318;SDS011;38258;51.148;14.068;2024-03-02T03:40:38;42.50;;;18.15;;
52318;SDS011;38258;51.148;14.068;2024-03-02T03:43:04;45.08;;;18.13;;
52318;SDS011;38258;51.148;14.068;2024-03-02T03:45:31;44.72;;;19.17;;
52318;SDS011;38258;51.148;14.068;2024-03-02T03:47:59;45.05;;;19.20;;
52318;SDS011;38258;51.148;14.068;2024-03-02T03:50:25;41.47;;;18.67;;
52318;SDS011;38258;51.148;14.068;2024-03-02T03:52:52;43.15;;;18.27;;
52318;SDS011;38258;51.148;14.068;2024-03-02T03:55:18;43.95;;;18.90;;
52318;SDS011;38258;51.148;14.068;2024-03-02T03:57:45;42.95;;;18.73;;
52318;SDS011;38258;51.148;14.068;2024-03-02T04:00:12;42.17;;;18.60;;
52318;SDS011;38258;51.148;14.068;2024-03-02T04:02:39;46.80;;;19.58;;
52318;SDS011;38258;51.148;14.068;2024-03-02T04:05:08;47.22;;;20.73;;
52318;SDS011;38258;51.148;14.068;2024-03-02T04:07:36;47.00;;;20.13;;
52318;SDS011;38258;51.148;14.068;2024-03-02T04:10:08;51.35;;;19.45;;
52318;SDS011;38258;51.148;14.068;2024-03-02T04:12:36;50.10;;;20.30;;
52318;SDS011;38258;51.148;14.068;2024-03-02T04:15:03;50.08;;;20.17;;
52318;SDS011;38258;51.148;14.068;2024-03-02T04:17:31;55.00;;;20.48;;
52318;SDS011;38258;51.148;14.068;2024-03-02T04:19:58;46.97;;;18.35;;
52318;SDS011;38258;51.148;14.068;2024-03-02T04:22:27;51.63;;;19.70;;
52318;SDS011;38258;51.148;14.068;2024-03-02T04:24:54;47.85;;;18.70;;
52318;SDS011;38258;51.148;14.068;2024-03-02T04:27:21;51.05;;;19.15;;
52318;SDS011;38258;51.148;14.068;2024-03-02T04:29:47;51.70;;;20.80;;
52318;SDS011;38258;51.148;14.068;2024-03-02T04:32:14;50.03;;;19.67;;
52318;SDS011;38258;51.148;14.068;2024-03-02T04:34:40;47.83;;;19.98;;
52318;SDS011;38258;51.148;14.068;2024-03-02T04:37:07;50.47;;;19.98;;
52318;SDS011;38258;51.148;14.068;2024-03-02T04:39:35;56.60;;;20.98;;
52318;SDS011;38258;51.148;14.068;2024-03-02T04:42:02;47.88;;;19.30;;
52318;SDS011;38258;51.148;14.068;2024-03-02T04:44:29;44.35;;;18.40;;
52318;SDS011;38258;51.148;14.068;2024-03-02T04:46:56;48.38;;;20.17;;
52318;SDS011;38258;51.148;14.068;2024-03-02T04:49:23;49.42;;;19.73;;
52318;SDS011;38258;51.148;14.068;2024-03-02T04:51:49;49.72;;;18.80;;
52318;SDS011;38258;51.148;14.068;2024-03-02T04:54:16;49.05;;;19.55;;
52318;SDS011;38258;51.148;14.068;2024-03-02T04:56:44;45.13;;;19.83;;
52318;SDS011;38258;51.148;14.068;2024-03-02T04:59:14;46.40;;;19.52;;
52318;SDS011;38258;51.148;14.068;2024-03-02T05:01:41;49.70;;;19.77;;
52318;SDS011;38258;51.148;14.068;2024-03-02T05:04:08;42.45;;;19.75;;
52318;SDS011;38258;51.148;14.068;2024-03-02T05:06:36;49.50;;;20.25;;
52318;SDS011;38258;51.148;14.068;2024-03-02T05:09:04;51.50;;;19.48;;
52318;SDS011;38258;51.148;14.068;2024-03-02T05:11:31;43.95;;;19.08;;
52318;SDS011;38258;51.148;14.068;2024-03-02T05:14:28;46.53;;;18.92;;
52318;SDS011;38258;51.148;14.068;2024-03-02T05:16:54;49.10;;;20.63;;
52318;SDS011;38258;51.148;14.068;2024-03-02T05:19:21;44.35;;;19.70;;
52318;SDS011;38258;51.148;14.068;2024-03-02T05:21:48;47.10;;;19.40;;
52318;SDS011;38258;51.148;14.068;2024-03-02T05:24:15;49.75;;;19.88;;
52318;SDS011;38258;51.148;14.068;2024-03-02T05:26:41;45.85;;;20.27;;
52318;SDS011;38258;51.148;14.068;2024-03-02T05:29:08;49.00;;;19.95;;
52318;SDS011;38258;51.148;14.068;2024-03-02T05:31:36;51.05;;;19.77;;
52318;SDS011;38258;51.148;14.068;2024-03-02T05:34:03;48.40;;;19.75;;
52318;SDS011;38258;51.148;14.068;2024-03-02T05:36:30;51.03;;;20.67;;
52318;SDS011;38258;51.148;14.068;2024-03-02T05:38:57;46.72;;;19.17;;
52318;SDS011;38258;51.148;14.068;2024-03-02T05:41:23;49.28;;;20.02;;
52318;SDS011;38258;51.148;14.068;2024-03-02T05:43:50;47.17;;;19.85;;
52318;SDS011;38258;51.148;14.068;2024-03-02T05:46:17;49.22;;;19.77;;
52318;SDS011;38258;51.148;14.068;2024-03-02T05:48:45;52.80;;;21.50;;
52318;SDS011;38258;51.148;14.068;2024-03-02T05:51:11;53.08;;;19.83;;
52318;SDS011;38258;51.148;14.068;2024-03-02T05:53:38;53.75;;;20.65;;
52318;SDS011;38258;51.148;14.068;2024-03-02T05:56:04;56.17;;;20.73;;
52318;SDS011;38258;51.148;14.068;2024-03-02T05:58:31;60.13;;;21.65;;
52318;SDS011;38258;51.148;14.068;2024-03-02T06:01:11;55.08;;;21.25;;
52318;SDS011;38258;51.148;14.068;2024-03-02T06:03:38;56.35;;;20.95;;
52318;SDS011;38258;51.148;14.068;2024-03-02T06:06:05;61.67;;;22.23;;
52318;SDS011;38258;51.148;14.068;2024-03-02T06:08:32;55.22;;;22.15;;
52318;SDS011;38258;51.148;14.068;2024-03-02T06:10:59;53.22;;;21.25;;
52318;SDS011;38258;51.148;14.068;2024-03-02T06:13:25;49.67;;;19.23;;
52318;SDS011;38258;51.148;14.068;2024-03-02T06:15:52;60.88;;;21.17;;
52318;SDS011;38258;51.148;14.068;2024-03-02T06:18:18;50.00;;;19.70;;
52318;SDS011;38258;51.148;14.068;2024-03-02T06:20:45;55.53;;;20.65;;
52318;SDS011;38258;51.148;14.068;2024-03-02T06:23:13;53.83;;;20.77;;
52318;SDS011;38258;51.148;14.068;2024-03-02T06:25:40;55.10;;;21.10;;
52318;SDS011;38258;51.148;14.068;2024-03-02T06:28:06;54.92;;;21.23;;
52318;SDS011;38258;51.148;14.068;2024-03-02T06:30:35;57.78;;;21.42;;
52318;SDS011;38258;51.148;14.068;2024-03-02T06:33:07;50.30;;;21.23;;
52318;SDS011;38258;51.148;14.068;2024-03-02T06:35:34;56.70;;;21.65;;
52318;SDS011;38258;51.148;14.068;2024-03-02T06:38:01;56.03;;;21.05;;
52318;SDS011;38258;51.148;14.068;2024-03-02T06:40:29;54.97;;;20.20;;
52318;SDS011;38258;51.148;14.068;2024-03-02T06:42:56;53.55;;;20.80;;
52318;SDS011;38258;51.148;14.068;2024-03-02T06:45:23;54.67;;;20.48;;
52318;SDS011;38258;51.148;14.068;2024-03-02T06:47:49;50.90;;;20.88;;
52318;SDS011;38258;51.148;14.068;2024-03-02T06:50:16;51.53;;;20.58;;
52318;SDS011;38258;51.148;14.068;2024-03-02T06:52:43;57.25;;;20.98;;
52318;SDS011;38258;51.148;14.068;2024-03-02T06:55:09;52.85;;;21.17;;
52318;SDS011;38258;51.148;14.068;2024-03-02T06:57:37;51.72;;;20.17;;
52318;SDS011;38258;51.148;14.068;2024-03-02T07:00:04;53.75;;;21.95;;
52318;SDS011;38258;51.148;14.068;2024-03-02T07:02:34;55.15;;;20.60;;
52318;SDS011;38258;51.148;14.068;2024-03-02T07:05:01;52.63;;;20.27;;
52318;SDS011;38258;51.148;14.068;2024-03-02T07:07:28;54.97;;;20.25;;
52318;SDS011;38258;51.148;14.068;2024-03-02T07:09:54;50.75;;;21.08;;
52318;SDS011;38258;51.148;14.068;2024-03-02T07:12:21;50.10;;;20.10;;
52318;SDS011;38258;51.148;14.068;2024-03-02T07:14:49;52.05;;;20.67;;
52318;SDS011;38258;51.148;14.068;2024-03-02T07:17:43;54.05;;;21.35;;
52318;SDS011;38258;51.148;14.068;2024-03-02T07:20:10;57.88;;;21.35;;
52318;SDS011;38258;51.148;14.068;2024-03-02T07:22:38;53.70;;;20.83;;
52318;SDS011;38258;51.148;14.068;2024-03-02T07:25:05;50.28;;;20.17;;
52318;SDS011;38258;51.148;14.068;2024-03-02T07:27:32;53.90;;;21.58;;
52318;SDS011;38258;51.148;14.068;2024-03-02T07:30:02;57.58;;;21.75;;
52318;SDS011;38258;51.148;14.068;2024-03-02T07:32:28;51.20;;;21.65;;
52318;SDS011;38258;51.148;14.068;2024-03-02T07:34:55;51.92;;;21.27;;
52318;SDS011;38258;51.148;14.068;2024-03-02T07:37:22;51.83;;;19.90;;
52318;SDS011;38258;51.148;14.068;2024-03-02T07:39:49;51.80;;;20.52;;
52318;SDS011;38258;51.148;14.068;2024-03-02T07:42:16;54.22;;;20.30;;
52318;SDS011;38258;51.148;14.068;2024-03-02T07:44:43;45.28;;;19.90;;
52318;SDS011;38258;51.148;14.068;2024-03-02T07:47:11;53.60;;;19.80;;
52318;SDS011;38258;51.148;14.068;2024-03-02T07:49:38;52.97;;;20.48;;
52318;SDS011;38258;51.148;14.068;2024-03-02T07:52:05;53.10;;;19.35;;
52318;SDS011;38258;51.148;14.068;2024-03-02T07:54:32;53.88;;;20.50;;
52318;SDS011;38258;51.148;14.068;2024-03-02T07:56:59;53.70;;;20.33;;
52318;SDS011;38258;51.148;14.068;2024-03-02T07:59:26;49.13;;;20.30;;
52318;SDS011;38258;51.148;14.068;2024-03-02T08:01:52;48.10;;;19.88;;
52318;SDS011;38258;51.148;14.068;2024-03-02T08:04:21;45.92;;;20.02;;
52318;SDS011;38258;51.148;14.068;2024-03-02T08:06:48;52.70;;;19.85;;
52318;SDS011;38258;51.148;14.068;2024-03-02T08:09:15;48.85;;;19.02;;
52318;SDS011;38258;51.148;14.068;2024-03-02T08:11:42;50.63;;;19.55;;
52318;SDS011;38258;51.148;14.068;2024-03-02T08:14:12;47.83;;;19.65;;
52318;SDS011;38258;51.148;14.068;2024-03-02T08:16:39;47.38;;;18.98;;
52318;SDS011;38258;51.148;14.068;2024-03-02T08:19:07;44.85;;;18.55;;
52318;SDS011;38258;51.148;14.068;2024-03-02T08:21:35;50.20;;;19.55;;
52318;SDS011;38258;51.148;14.068;2024-03-02T08:24:02;48.65;;;19.60;;
52318;SDS011;38258;51.148;14.068;2024-03-02T08:26:29;50.38;;;19.67;;
52318;SDS011;38258;51.148;14.068;2024-03-02T08:28:57;41.08;;;17.75;;
52318;SDS011;38258;51.148;14.068;2024-03-02T08:31:23;46.22;;;18.50;;
52318;SDS011;38258;51.148;14.068;2024-03-02T08:33:50;46.65;;;18.90;;
52318;SDS011;38258;51.148;14.068;2024-03-02T08:36:21;46.67;;;18.10;;
52318;SDS011;38258;51.148;14.068;2024-03-02T08:38:49;46.80;;;18.55;;
52318;SDS011;38258;51.148;14.068;2024-03-02T08:41:16;42.10;;;17.80;;
52318;SDS011;38258;51.148;14.068;2024-03-02T08:43:43;42.50;;;17.60;;
52318;SDS011;38258;51.148;14.068;2024-03-02T08:46:10;43.58;;;18.05;;
52318;SDS011;38258;51.148;14.068;2024-03-02T08:48:37;44.22;;;18.40;;
52318;SDS011;38258;51.148;14.068;2024-03-02T08:51:03;48.35;;;18.55;;
52318;SDS011;38258;51.148;14.068;2024-03-02T08:53:33;43.78;;;18.45;;
52318;SDS011;38258;51.148;14.068;2024-03-02T08:56:01;41.33;;;19.05;;
52318;SDS011;38258;51.148;14.068;2024-03-02T08:58:30;41.13;;;18.40;;
52318;SDS011;38258;51.148;14.068;2024-03-02T09:00:57;43.55;;;18.27;;
52318;SDS011;38258;51.148;14.068;2024-03-02T09:03:24;43.78;;;18.95;;
52318;SDS011;38258;51.148;14.068;2024-03-02T09:05:51;40.40;;;16.95;;
52318;SDS011;38258;51.148;14.068;2024-03-02T09:08:17;46.88;;;19.23;;
52318;SDS011;38258;51.148;14.068;2024-03-02T09:10:44;42.67;;;17.77;;
52318;SDS011;38258;51.148;14.068;2024-03-02T09:13:12;36.53;;;15.68;;
52318;SDS011;38258;51.148;14.068;2024-03-02T09:15:39;46.30;;;18.52;;
52318;SDS011;38258;51.148;14.068;2024-03-02T09:18:06;38.42;;;16.75;;
52318;SDS011;38258;51.148;14.068;2024-03-02T09:20:33;38.22;;;17.15;;
52318;SDS011;38258;51.148;14.068;2024-03-02T09:22:59;35.67;;;16.33;;
52318;SDS011;38258;51.148;14.068;2024-03-02T09:25:26;34.80;;;15.88;;
52318;SDS011;38258;51.148;14.068;2024-03-02T09:27:53;34.20;;;16.13;;
52318;SDS011;38258;51.148;14.068;2024-03-02T09:30:21;36.33;;;15.43;;
52318;SDS011;38258;51.148;14.068;2024-03-02T09:32:47;35.42;;;15.38;;
52318;SDS011;38258;51.148;14.068;2024-03-02T09:35:14;34.03;;;15.20;;
52318;SDS011;38258;51.148;14.068;2024-03-02T09:37:41;33.60;;;14.77;;
52318;SDS011;38258;51.148;14.068;2024-03-02T09:40:08;32.50;;;15.07;;
52318;SDS011;38258;51.148;14.068;2024-03-02T09:42:36;45.85;;;20.70;;
52318;SDS011;38258;51.148;14.068;2024-03-02T09:45:03;45.75;;;20.42;;
52318;SDS011;38258;51.148;14.068;2024-03-02T09:47:31;114.47;;;45.53;;
52318;SDS011;38258;51.148;14.068;2024-03-02T09:49:59;34.17;;;16.85;;
52318;SDS011;38258;51.148;14.068;2024-03-02T09:52:25;63.55;;;29.77;;
52318;SDS011;38258;51.148;14.068;2024-03-02T09:54:52;27.45;;;13.48;;
52318;SDS011;38258;51.148;14.068;2024-03-02T09:57:19;28.60;;;11.73;;
52318;SDS011;38258;51.148;14.068;2024-03-02T09:59:45;30.60;;;13.98;;
52318;SDS011;38258;51.148;14.068;2024-03-02T10:02:12;29.05;;;12.32;;
52318;SDS011;38258;51.148;14.068;2024-03-02T10:04:40;31.38;;;13.70;;
52318;SDS011;38258;51.148;14.068;2024-03-02T10:07:13;29.70;;;14.02;;
52318;SDS011;38258;51.148;14.068;2024-03-02T10:09:41;34.38;;;16.30;;
52318;SDS011;38258;51.148;14.068;2024-03-02T10:12:09;28.77;;;13.85;;
52318;SDS011;38258;51.148;14.068;2024-03-02T10:14:37;29.70;;;14.02;;
52318;SDS011;38258;51.148;14.068;2024-03-02T10:17:05;29.17;;;13.18;;
52318;SDS011;38258;51.148;14.068;2024-03-02T10:19:33;28.08;;;13.20;;
52318;SDS011;38258;51.148;14.068;2024-03-02T10:22:03;75.18;;;29.75;;
52318;SDS011;38258;51.148;14.068;2024-03-02T10:24:35;32.85;;;15.02;;
52318;SDS011;38258;51.148;14.068;2024-03-02T10:27:07;29.55;;;15.50;;
52318;SDS011;38258;51.148;14.068;2024-03-02T10:29:38;24.70;;;11.50;;
52318;SDS011;38258;51.148;14.068;2024-03-02T10:32:06;25.15;;;12.30;;
52318;SDS011;38258;51.148;14.068;2024-03-02T10:34:36;26.73;;;12.68;;
52318;SDS011;38258;51.148;14.068;2024-03-02T10:37:05;24.95;;;12.38;;
52318;SDS011;38258;51.148;14.068;2024-03-02T10:39:32;24.90;;;11.73;;
52318;SDS011;38258;51.148;14.068;2024-03-02T10:42:00;23.90;;;12.23;;
52318;SDS011;38258;51.148;14.068;2024-03-02T10:44:29;23.65;;;11.43;;
52318;SDS011;38258;51.148;14.068;2024-03-02T10:46:57;27.15;;;13.07;;
52318;SDS011;38258;51.148;14.068;2024-03-02T10:49:27;24.65;;;12.18;;
52318;SDS011;38258;51.148;14.068;2024-03-02T10:51:55;28.40;;;11.52;;
52318;SDS011;38258;51.148;14.068;2024-03-02T10:54:24;30.40;;;14.77;;
52318;SDS011;38258;51.148;14.068;2024-03-02T10:56:54;26.77;;;11.48;;
52318;SDS011;38258;51.148;14.068;2024-03-02T10:59:24;42.40;;;17.40;;
52318;SDS011;38258;51.148;14.068;2024-03-02T11:01:55;54.65;;;21.48;;
52318;SDS011;38258;51.148;14.068;2024-03-02T11:04:23;24.23;;;10.18;;
52318;SDS011;38258;51.148;14.068;2024-03-02T11:06:51;20.02;;;9.88;;
52318;SDS011;38258;51.148;14.068;2024-03-02T11:09:22;21.70;;;9.70;;
52318;SDS011;38258;51.148;14.068;2024-03-02T11:11:54;40.72;;;19.20;;
52318;SDS011;38258;51.148;14.068;2024-03-02T11:14:29;24.38;;;12.10;;
52318;SDS011;38258;51.148;14.068;2024-03-02T11:16:57;51.08;;;32.97;;
52318;SDS011;38258;51.148;14.068;2024-03-02T11:19:26;21.65;;;10.25;;
52318;SDS011;38258;51.148;14.068;2024-03-02T11:21:54;32.25;;;18.73;;
52318;SDS011;38258;51.148;14.068;2024-03-02T11:24:34;20.02;;;11.43;;
52318;SDS011;38258;51.148;14.068;2024-03-02T11:27:02;75.05;;;43.97;;
52318;SDS011;38258;51.148;14.068;2024-03-02T11:29:45;53.80;;;29.08;;
52318;SDS011;38258;51.148;14.068;2024-03-02T11:32:16;54.08;;;31.67;;
52318;SDS011;38258;51.148;14.068;2024-03-02T11:34:44;24.65;;;11.90;;
52318;SDS011;38258;51.148;14.068;2024-03-02T11:37:13;24.73;;;10.40;;
52318;SDS011;38258;51.148;14.068;2024-03-02T11:39:42;21.33;;;11.15;;
52318;SDS011;38258;51.148;14.068;2024-03-02T11:42:10;23.83;;;10.80;;
52318;SDS011;38258;51.148;14.068;2024-03-02T11:44:39;20.65;;;10.10;;
52318;SDS011;38258;51.148;14.068;2024-03-02T11:47:11;22.27;;;9.85;;
52318;SDS011;38258;51.148;14.068;2024-03-02T11:49:50;19.48;;;9.45;;
52318;SDS011;38258;51.148;14.068;2024-03-02T11:52:26;18.55;;;9.35;;
52318;SDS011;38258;51.148;14.068;2024-03-02T11:54:57;17.63;;;8.98;;
52318;SDS011;38258;51.148;14.068;2024-03-02T11:57:24;18.92;;;8.90;;
52318;SDS011;38258;51.148;14.068;2024-03-02T11:59:52;18.15;;;8.35;;
52318;SDS011;38258;51.148;14.068;2024-03-02T12:02:19;16.08;;;8.05;;
52318;SDS011;38258;51.148;14.068;2024-03-02T12:04:48;15.38;;;7.72;;
52318;SDS011;38258;51.148;14.068;2024-03-02T12:07:18;15.32;;;7.90;;
52318;SDS011;38258;51.148;14.068;2024-03-02T12:09:47;15.82;;;7.43;;
52318;SDS011;38258;51.148;14.068;2024-03-02T12:12:15;22.42;;;9.50;;
52318;SDS011;38258;51.148;14.068;2024-03-02T12:14:50;19.13;;;9.00;;
52318;SDS011;38258;51.148;14.068;2024-03-02T12:17:18;16.23;;;8.02;;
52318;SDS011;38258;51.148;14.068;2024-03-02T12:19:45;23.13;;;10.63;;
52318;SDS011;38258;51.148;14.068;2024-03-02T12:22:12;15.77;;;8.02;;
52318;SDS011;38258;51.148;14.068;2024-03-02T12:24:39;17.65;;;8.00;;
52318;SDS011;38258;51.148;14.068;2024-03-02T12:27:05;21.20;;;9.52;;
52318;SDS011;38258;51.148;14.068;2024-03-02T12:29:34;18.00;;;8.45;;
52318;SDS011;38258;51.148;14.068;2024-03-02T12:32:01;16.58;;;7.75;;
52318;SDS011;38258;51.148;14.068;2024-03-02T12:34:28;18.10;;;8.25;;
52318;SDS011;38258;51.148;14.068;2024-03-02T12:36:54;19.10;;;8.10;;
52318;SDS011;38258;51.148;14.068;2024-03-02T12:39:21;19.48;;;8.70;;
52318;SDS011;38258;51.148;14.068;2024-03-02T12:41:48;16.88;;;8.35;;
52318;SDS011;38258;51.148;14.068;2024-03-02T12:44:15;21.45;;;9.18;;
52318;SDS011;38258;51.148;14.068;2024-03-02T12:46:44;19.17;;;8.13;;
52318;SDS011;38258;51.148;14.068;2024-03-02T12:49:11;19.33;;;8.75;;
52318;SDS011;38258;51.148;14.068;2024-03-02T12:51:39;15.88;;;8.02;;
52318;SDS011;38258;51.148;14.068;2024-03-02T12:54:07;19.02;;;8.77;;
52318;SDS011;38258;51.148;14.068;2024-03-02T12:56:35;17.42;;;8.25;;
52318;SDS011;38258;51.148;14.068;2024-03-02T12:59:02;16.95;;;8.13;;
52318;SDS011;38258;51.148;14.068;2024-03-02T13:01:30;18.55;;;7.22;;
52318;SDS011;38258;51.148;14.068;2024-03-02T13:03:58;13.73;;;7.63;;
52318;SDS011;38258;51.148;14.068;2024-03-02T13:06:25;13.90;;;7.32;;
52318;SDS011;38258;51.148;14.068;2024-03-02T13:08:54;16.48;;;7.00;;
52318;SDS011;38258;51.148;14.068;2024-03-02T13:11:21;18.38;;;6.70;;
52318;SDS011;38258;51.148;14.068;2024-03-02T13:13:48;28.33;;;9.82;;
52318;SDS011;38258;51.148;14.068;2024-03-02T13:16:15;16.00;;;7.40;;
52318;SDS011;38258;51.148;14.068;2024-03-02T13:18:44;12.25;;;6.32;;
52318;SDS011;38258;51.148;14.068;2024-03-02T13:21:12;14.95;;;7.43;;
52318;SDS011;38258;51.148;14.068;2024-03-02T13:23:39;15.55;;;8.27;;
52318;SDS011;38258;51.148;14.068;2024-03-02T13:26:06;16.92;;;8.07;;
52318;SDS011;38258;51.148;14.068;2024-03-02T13:28:36;18.10;;;8.93;;
52318;SDS011;38258;51.148;14.068;2024-03-02T13:31:03;20.60;;;8.60;;
52318;SDS011;38258;51.148;14.068;2024-03-02T13:33:30;19.25;;;8.40;;
52318;SDS011;38258;51.148;14.068;2024-03-02T13:35:58;16.35;;;8.30;;
52318;SDS011;38258;51.148;14.068;2024-03-02T13:38:26;18.52;;;8.23;;
52318;SDS011;38258;51.148;14.068;2024-03-02T13:40:52;15.00;;;7.97;;
52318;SDS011;38258;51.148;14.068;2024-03-02T13:43:19;16.73;;;8.38;;
52318;SDS011;38258;51.148;14.068;2024-03-02T13:45:46;17.10;;;7.80;;
52318;SDS011;38258;51.148;14.068;2024-03-02T13:48:13;17.00;;;7.78;;
52318;SDS011;38258;51.148;14.068;2024-03-02T13:50:40;15.45;;;7.45;;
52318;SDS011;38258;51.148;14.068;2024-03-02T13:53:07;20.08;;;8.52;;
52318;SDS011;38258;51.148;14.068;2024-03-02T13:55:35;20.38;;;8.77;;
52318;SDS011;38258;51.148;14.068;2024-03-02T13:58:03;17.67;;;8.55;;
52318;SDS011;38258;51.148;14.068;2024-03-02T14:00:31;17.33;;;8.18;;
52318;SDS011;38258;51.148;14.068;2024-03-02T14:02:58;17.98;;;8.25;;
52318;SDS011;38258;51.148;14.068;2024-03-02T14:05:25;19.63;;;8.40;;
52318;SDS011;38258;51.148;14.068;2024-03-02T14:07:52;18.98;;;7.70;;
52318;SDS011;38258;51.148;14.068;2024-03-02T14:10:19;17.60;;;9.02;;
52318;SDS011;38258;51.148;14.068;2024-03-02T14:12:49;18.67;;;9.27;;
52318;SDS011;38258;51.148;14.068;2024-03-02T14:15:15;20.13;;;9.23;;
52318;SDS011;38258;51.148;14.068;2024-03-02T14:17:42;19.77;;;9.07;;
52318;SDS011;38258;51.148;14.068;2024-03-02T14:20:09;19.33;;;9.13;;